createdAt,value
2022-12-25T00:00:21.191Z,10.50
2022-12-25T00:03:07.334Z,10.70
2022-12-25T00:05:53.277Z,10.60
2022-12-25T00:08:40.074Z,10.30
2022-12-25T00:11:25.913Z,10.10
2022-12-25T00:14:11.287Z,10.10
2022-12-25T00:16:56.631Z,10.00
2022-12-25T00:19:42.332Z,10.10
2022-12-25T00:22:28.049Z,10.10
2022-12-25T00:25:13.693Z,10.30
2022-12-25T00:27:59.191Z,10.40
2022-12-25T00:30:44.942Z,10.40
2022-12-25T00:33:30.544Z,10.50
2022-12-25T00:36:18.413Z,10.20
2022-12-25T00:39:04.214Z,10.00
2022-12-25T00:42:08.249Z,10.10
2022-12-25T00:44:53.725Z,10.00
2022-12-25T00:47:39.241Z,10.00
2022-12-25T00:50:24.793Z,9.90
2022-12-25T00:53:10.271Z,9.90
2022-12-25T00:55:59.068Z,9.40
2022-12-25T00:58:44.879Z,9.90
2022-12-25T01:01:30.742Z,9.80
2022-12-25T01:04:16.872Z,9.80
2022-12-25T01:07:02.572Z,9.70
2022-12-25T01:10:07.575Z,9.80
2022-12-25T01:12:53.167Z,9.80
2022-12-25T01:15:38.777Z,9.70
2022-12-25T01:18:25.494Z,9.70
2022-12-25T01:21:16.193Z,9.70
2022-12-25T01:24:02.222Z,9.90
2022-12-25T01:26:47.612Z,9.90
2022-12-25T01:29:33.191Z,9.70
2022-12-25T01:32:18.668Z,9.80
2022-12-25T01:35:04.608Z,9.80
2022-12-25T01:37:51.833Z,9.70
2022-12-25T01:40:37.839Z,9.70
2022-12-25T01:43:26.055Z,9.80
2022-12-25T01:46:11.748Z,9.70
2022-12-25T01:49:12.204Z,9.80
2022-12-25T01:52:24.191Z,9.90
2022-12-25T01:55:11.810Z,10.00
2022-12-25T01:57:57.526Z,10.50
2022-12-25T02:00:43.114Z,10.30
2022-12-25T02:03:28.913Z,10.80
2022-12-25T02:06:16.039Z,10.90
2022-12-25T02:09:01.836Z,10.70
2022-12-25T02:11:56.694Z,10.60
2022-12-25T02:14:42.447Z,10.70
2022-12-25T02:17:31.248Z,10.80
2022-12-25T02:20:43.198Z,10.50
2022-12-25T02:23:50.310Z,10.30
2022-12-25T02:27:03.429Z,10.40
2022-12-25T02:30:04.244Z,10.70
2022-12-25T02:33:15.400Z,10.60
2022-12-25T02:36:07.431Z,10.60
2022-12-25T02:39:18.261Z,10.80
2022-12-25T02:42:08.213Z,10.50
2022-12-25T02:45:12.482Z,10.20
2022-12-25T02:48:17.360Z,10.00
2022-12-25T02:51:24.958Z,9.80
2022-12-25T02:54:32.957Z,9.70
2022-12-25T02:57:41.679Z,9.70
2022-12-25T03:00:48.454Z,9.80
2022-12-25T03:03:57.126Z,9.90
2022-12-25T03:07:00.787Z,10.00
2022-12-25T03:10:24.221Z,9.80
2022-12-25T03:13:19.993Z,10.00
2022-12-25T03:16:25.308Z,10.30
2022-12-25T03:19:29.255Z,10.40
2022-12-25T03:22:47.350Z,10.10
2022-12-25T03:25:51.423Z,10.00
2022-12-25T03:28:36.954Z,9.90
2022-12-25T03:31:25.593Z,9.90
2022-12-25T03:34:38.680Z,9.80
2022-12-25T03:38:18.796Z,9.90
2022-12-25T03:41:39.928Z,9.90
2022-12-25T03:44:53.747Z,10.50
2022-12-25T03:48:04.792Z,10.00
2022-12-25T03:51:22.202Z,9.90
2022-12-25T03:54:29.934Z,9.80
2022-12-25T03:57:33.941Z,10.20
2022-12-25T04:00:37.929Z,10.30
2022-12-25T04:03:42.084Z,10.20
2022-12-25T04:06:45.805Z,10.40
2022-12-25T04:09:49.620Z,10.90
2022-12-25T04:12:53.585Z,10.90
2022-12-25T04:15:57.562Z,11.30
2022-12-25T04:19:01.819Z,11.40
2022-12-25T04:22:05.627Z,11.70
2022-12-25T04:25:09.697Z,11.50
2022-12-25T04:28:20.323Z,11.60
2022-12-25T04:31:24.688Z,11.60
2022-12-25T04:34:28.676Z,11.60
2022-12-25T04:37:14.141Z,11.70
2022-12-25T04:39:59.698Z,11.80
2022-12-25T04:42:45.485Z,11.90
2022-12-25T04:45:31.171Z,11.90
2022-12-25T04:48:16.571Z,11.90
2022-12-25T04:51:22.676Z,11.70
2022-12-25T04:54:08.239Z,11.00
2022-12-25T04:56:53.691Z,11.40
2022-12-25T04:59:39.480Z,11.50
2022-12-25T05:02:25.106Z,11.60
2022-12-25T05:05:11.125Z,11.70
2022-12-25T05:07:57.934Z,11.80
2022-12-25T05:10:43.313Z,11.90
2022-12-25T05:13:29.011Z,12.00
2022-12-25T05:16:17.569Z,11.40
2022-12-25T05:19:03.534Z,10.90
2022-12-25T05:21:49.087Z,10.70
2022-12-25T05:24:34.325Z,10.60
2022-12-25T05:27:20.547Z,10.40
2022-12-25T05:30:07.103Z,10.50
2022-12-25T05:32:52.776Z,10.60
2022-12-25T05:35:39.278Z,10.50
2022-12-25T05:38:24.935Z,10.60
2022-12-25T05:41:10.494Z,10.20
2022-12-25T05:43:56.161Z,10.20
2022-12-25T05:46:42.167Z,10.60
2022-12-25T05:49:28.144Z,11.00
2022-12-25T05:52:13.570Z,10.80
2022-12-25T05:54:59.816Z,10.90
2022-12-25T05:57:45.660Z,11.20
2022-12-25T06:00:31.348Z,11.20
2022-12-25T06:03:17.320Z,11.20
2022-12-25T06:06:07.335Z,11.30
2022-12-25T06:08:56.275Z,11.50
2022-12-25T06:11:42.216Z,11.40
2022-12-25T06:14:28.030Z,11.40
2022-12-25T06:17:13.561Z,11.60
2022-12-25T06:19:59.184Z,11.60
2022-12-25T06:22:44.915Z,11.50
2022-12-25T06:25:30.387Z,11.40
2022-12-25T06:28:15.797Z,11.60
2022-12-25T06:31:11.828Z,11.40
2022-12-25T06:33:57.538Z,11.30
2022-12-25T06:36:43.511Z,11.30
2022-12-25T06:39:29.002Z,11.20
2022-12-25T06:42:14.660Z,11.40
2022-12-25T06:45:00.070Z,11.50
2022-12-25T06:47:45.572Z,11.50
2022-12-25T06:50:31.053Z,11.40
2022-12-25T06:53:16.579Z,10.70
2022-12-25T06:56:23.969Z,10.60
2022-12-25T06:59:11.578Z,10.50
2022-12-25T07:01:57.853Z,10.50
2022-12-25T07:04:43.657Z,11.10
2022-12-25T07:07:29.273Z,11.30
2022-12-25T07:10:14.969Z,11.50
2022-12-25T07:13:00.460Z,11.50
2022-12-25T07:15:46.054Z,11.40
2022-12-25T07:18:32.368Z,11.40
2022-12-25T07:21:19.933Z,11.50
2022-12-25T07:24:05.513Z,11.50
2022-12-25T07:26:51.861Z,11.70
2022-12-25T07:29:37.422Z,11.70
2022-12-25T07:32:23.193Z,11.60
2022-12-25T07:35:08.992Z,11.20
2022-12-25T07:37:54.535Z,10.80
2022-12-25T07:40:39.849Z,11.30
2022-12-25T07:43:25.665Z,11.50
2022-12-25T07:46:11.806Z,11.10
2022-12-25T07:48:57.579Z,11.40
2022-12-25T07:51:42.919Z,11.70
2022-12-25T07:54:28.460Z,11.70
2022-12-25T07:57:14.246Z,11.70
2022-12-25T08:00:00.041Z,11.90
2022-12-25T08:02:45.775Z,11.90
2022-12-25T08:05:33.180Z,11.90
2022-12-25T08:08:18.859Z,11.20
2022-12-25T08:11:06.778Z,11.00
2022-12-25T08:13:52.429Z,11.10
2022-12-25T08:16:41.601Z,10.80
2022-12-25T08:19:29.285Z,11.40
2022-12-25T08:22:15.057Z,11.70
2022-12-25T08:25:00.368Z,11.60
2022-12-25T08:27:45.924Z,11.50
2022-12-25T08:30:31.405Z,11.90
2022-12-25T08:33:16.849Z,11.90
2022-12-25T08:36:05.679Z,12.00
2022-12-25T08:38:53.452Z,11.60
2022-12-25T08:41:41.821Z,11.90
2022-12-25T08:44:27.697Z,12.00
2022-12-25T08:47:13.306Z,12.30
2022-12-25T08:49:58.879Z,12.10
2022-12-25T08:52:44.469Z,12.10
2022-12-25T08:55:30.556Z,12.20
2022-12-25T08:58:16.657Z,12.30
2022-12-25T09:01:02.518Z,12.50
2022-12-25T09:03:48.400Z,12.50
2022-12-25T09:06:33.878Z,12.60
2022-12-25T09:09:19.647Z,12.40
2022-12-25T09:12:05.318Z,12.20
2022-12-25T09:14:51.228Z,11.50
2022-12-25T09:17:36.618Z,11.90
2022-12-25T09:20:22.308Z,12.20
2022-12-25T09:23:13.573Z,12.20
2022-12-25T09:26:05.037Z,12.20
2022-12-25T09:28:52.532Z,12.00
2022-12-25T09:31:38.526Z,12.00
2022-12-25T09:34:24.059Z,11.30
2022-12-25T09:37:09.504Z,11.70
2022-12-25T09:39:55.611Z,12.10
2022-12-25T09:42:42.180Z,12.40
2022-12-25T09:45:33.965Z,12.20
2022-12-25T09:48:19.726Z,12.00
2022-12-25T09:51:16.489Z,12.00
2022-12-25T09:54:17.397Z,11.70
2022-12-25T09:57:03.581Z,11.90
2022-12-25T09:59:48.969Z,11.80
2022-12-25T10:03:03.539Z,12.10
2022-12-25T10:05:55.411Z,12.70
2022-12-25T10:09:06.659Z,13.00
2022-12-25T10:12:13.911Z,12.90
2022-12-25T10:15:22.266Z,12.80
2022-12-25T10:18:13.544Z,13.10
2022-12-25T10:21:03.959Z,13.40
2022-12-25T10:23:58.162Z,13.10
2022-12-25T10:26:45.274Z,13.40
2022-12-25T10:29:32.755Z,13.50
2022-12-25T10:32:18.616Z,13.50
2022-12-25T10:35:04.553Z,13.60
2022-12-25T10:38:16.020Z,13.50
2022-12-25T10:41:11.004Z,13.50
2022-12-25T10:43:57.797Z,13.10
2022-12-25T10:46:49.845Z,13.30
2022-12-25T10:49:39.821Z,13.40
2022-12-25T10:52:28.329Z,13.30
2022-12-25T10:55:22.357Z,13.50
2022-12-25T10:58:20.138Z,12.70
2022-12-25T11:01:07.732Z,12.10
2022-12-25T11:03:53.314Z,11.80
2022-12-25T11:06:38.863Z,11.70
2022-12-25T11:09:24.650Z,11.50
2022-12-25T11:12:20.082Z,11.50
2022-12-25T11:15:26.608Z,11.40
2022-12-25T11:18:25.618Z,12.10
2022-12-25T11:21:17.889Z,11.50
2022-12-25T11:24:17.867Z,12.10
2022-12-25T11:27:09.245Z,11.80
2022-12-25T11:30:00.936Z,11.70
2022-12-25T11:32:55.632Z,12.60
2022-12-25T11:35:52.596Z,12.60
2022-12-25T11:38:38.345Z,13.20
2022-12-25T11:41:31.779Z,12.00
2022-12-25T11:44:42.506Z,11.50
2022-12-25T11:47:54.355Z,11.70
2022-12-25T11:51:07.268Z,11.60
2022-12-25T11:53:55.691Z,11.50
2022-12-25T11:56:41.182Z,11.70
2022-12-25T12:00:06.844Z,12.20
2022-12-25T12:03:13.711Z,12.60
2022-12-25T12:06:03.726Z,12.00
2022-12-25T12:08:53.956Z,11.60
2022-12-25T12:11:52.787Z,11.30
2022-12-25T12:15:16.402Z,11.30
2022-12-25T12:18:20.776Z,11.60
2022-12-25T12:21:26.370Z,12.60
2022-12-25T12:24:20.219Z,12.80
2022-12-25T12:27:26.811Z,12.90
2022-12-25T12:30:29.195Z,12.40
2022-12-25T12:33:21.754Z,12.80
2022-12-25T12:36:13.009Z,13.00
2022-12-25T12:38:59.123Z,13.20
2022-12-25T12:41:49.567Z,13.10
2022-12-25T12:44:35.616Z,12.50
2022-12-25T12:47:48.836Z,11.90
2022-12-25T12:50:42.607Z,11.40
2022-12-25T12:53:30.774Z,11.30
2022-12-25T12:56:20.501Z,11.30
2022-12-25T12:59:09.260Z,11.20
2022-12-25T13:02:17.641Z,11.60
2022-12-25T13:05:14.667Z,11.40
2022-12-25T13:08:48.239Z,11.60
2022-12-25T13:11:38.953Z,12.50
2022-12-25T13:14:25.324Z,13.00
2022-12-25T13:17:14.725Z,13.30
2022-12-25T13:20:02.264Z,13.20
2022-12-25T13:22:52.718Z,13.30
2022-12-25T13:25:39.406Z,13.40
2022-12-25T13:28:29.958Z,13.50
2022-12-25T13:31:18.092Z,13.10
2022-12-25T13:34:05.292Z,12.40
2022-12-25T13:36:51.247Z,12.50
2022-12-25T13:39:48.228Z,12.90
2022-12-25T13:42:36.658Z,12.90
2022-12-25T13:45:28.810Z,12.50
2022-12-25T13:48:20.161Z,12.80
2022-12-25T13:51:05.979Z,12.80
2022-12-25T13:54:02.564Z,12.80
2022-12-25T13:56:55.357Z,12.90
2022-12-25T13:59:44.769Z,12.80
2022-12-25T14:02:34.662Z,11.90
2022-12-25T14:05:43.272Z,11.70
2022-12-25T14:08:32.273Z,12.30
2022-12-25T14:11:20.898Z,12.70
2022-12-25T14:14:16.974Z,12.80
2022-12-25T14:17:02.760Z,12.90
2022-12-25T14:20:07.635Z,13.10
2022-12-25T14:22:56.497Z,13.20
2022-12-25T14:25:45.441Z,13.10
2022-12-25T14:28:32.951Z,13.10
2022-12-25T14:31:20.248Z,13.20
2022-12-25T14:34:12.429Z,13.20
2022-12-25T14:36:58.130Z,13.20
2022-12-25T14:39:48.148Z,13.20
2022-12-25T14:42:37.691Z,13.20
2022-12-25T14:45:40.409Z,13.30
2022-12-25T14:48:31.058Z,13.20
2022-12-25T14:51:17.867Z,13.10
2022-12-25T14:54:05.421Z,13.10
2022-12-25T14:56:56.015Z,13.00
2022-12-25T14:59:41.593Z,13.00
2022-12-25T15:02:29.232Z,13.00
2022-12-25T15:05:33.791Z,13.00
2022-12-25T15:08:24.256Z,12.70
2022-12-25T15:11:10.084Z,12.80
2022-12-25T15:13:56.437Z,12.90
2022-12-25T15:16:47.066Z,13.10
2022-12-25T15:19:38.864Z,12.90
2022-12-25T15:22:24.719Z,12.80
2022-12-25T15:25:14.398Z,13.00
2022-12-25T15:28:00.146Z,13.10
2022-12-25T15:30:46.926Z,13.00
2022-12-25T15:33:33.264Z,13.10
2022-12-25T15:36:19.052Z,13.10
2022-12-25T15:39:04.439Z,13.10
2022-12-25T15:42:08.799Z,13.10
2022-12-25T15:44:54.645Z,12.90
2022-12-25T15:47:40.430Z,13.00
2022-12-25T15:50:26.367Z,13.10
2022-12-25T15:53:12.547Z,13.10
2022-12-25T15:55:58.064Z,13.10
2022-12-25T15:58:43.847Z,13.00
2022-12-25T16:01:29.370Z,12.80
2022-12-25T16:04:15.252Z,12.70
2022-12-25T16:07:01.425Z,12.70
2022-12-25T16:09:47.310Z,12.40
2022-12-25T16:12:33.237Z,12.20
2022-12-25T16:15:18.786Z,12.00
2022-12-25T16:18:04.905Z,11.90
2022-12-25T16:20:52.535Z,12.10
2022-12-25T16:23:37.916Z,12.00
2022-12-25T16:26:23.509Z,12.30
2022-12-25T16:29:09.522Z,12.60
2022-12-25T16:31:55.196Z,12.60
2022-12-25T16:34:41.545Z,12.70
2022-12-25T16:37:27.694Z,12.60
2022-12-25T16:40:13.325Z,12.70
2022-12-25T16:42:59.424Z,12.80
2022-12-25T16:45:45.748Z,12.70
2022-12-25T16:48:31.680Z,12.70
2022-12-25T16:51:21.422Z,12.70
2022-12-25T16:54:07.391Z,12.80
2022-12-25T16:56:53.402Z,12.90
2022-12-25T16:59:38.934Z,12.90
2022-12-25T17:02:26.000Z,12.90
2022-12-25T17:05:11.925Z,12.80
2022-12-25T17:07:59.470Z,12.70
2022-12-25T17:10:44.928Z,12.70
2022-12-25T17:13:33.162Z,12.70
2022-12-25T17:16:27.784Z,12.80
2022-12-25T17:19:19.449Z,12.80
2022-12-25T17:22:05.225Z,12.80
2022-12-25T17:24:50.985Z,12.80
2022-12-25T17:27:36.708Z,12.70
2022-12-25T17:30:22.162Z,12.70
2022-12-25T17:33:07.667Z,12.70
2022-12-25T17:35:56.086Z,12.60
2022-12-25T17:38:46.370Z,12.60
2022-12-25T17:41:32.137Z,12.80
2022-12-25T17:44:18.734Z,12.80
2022-12-25T17:47:04.700Z,12.70
2022-12-25T17:49:50.531Z,12.80
2022-12-25T17:52:36.451Z,12.90
2022-12-25T17:55:22.703Z,12.80
2022-12-25T17:58:08.835Z,12.70
2022-12-25T18:00:54.532Z,12.70
2022-12-25T18:03:40.938Z,13.10
2022-12-25T18:06:28.403Z,12.60
2022-12-25T18:09:13.928Z,12.80
2022-12-25T18:11:59.322Z,12.80
2022-12-25T18:14:44.955Z,12.50
2022-12-25T18:17:30.401Z,12.60
2022-12-25T18:20:15.803Z,12.60
2022-12-25T18:23:01.612Z,12.80
2022-12-25T18:25:47.970Z,12.50
2022-12-25T18:28:34.461Z,12.10
2022-12-25T18:31:23.531Z,12.40
2022-12-25T18:34:09.193Z,12.70
2022-12-25T18:37:02.658Z,12.60
2022-12-25T18:39:48.119Z,12.50
2022-12-25T18:42:39.470Z,12.70
2022-12-25T18:45:24.934Z,12.70
2022-12-25T18:48:11.331Z,12.70
2022-12-25T18:51:03.329Z,12.50
2022-12-25T18:53:48.929Z,12.30
2022-12-25T18:56:34.940Z,12.30
2022-12-25T18:59:20.929Z,12.30
2022-12-25T19:02:07.026Z,12.60
2022-12-25T19:04:52.867Z,12.30
2022-12-25T19:07:38.439Z,12.30
2022-12-25T19:10:24.282Z,12.40
2022-12-25T19:13:10.145Z,12.30
2022-12-25T19:15:59.526Z,12.50
2022-12-25T19:18:45.205Z,12.60
2022-12-25T19:21:30.577Z,12.60
2022-12-25T19:24:16.479Z,12.50
2022-12-25T19:27:02.475Z,12.30
2022-12-25T19:29:47.962Z,12.20
2022-12-25T19:32:33.644Z,12.40
2022-12-25T19:35:19.202Z,12.70
2022-12-25T19:38:04.636Z,12.80
2022-12-25T19:41:01.997Z,12.70
2022-12-25T19:43:48.892Z,12.70
2022-12-25T19:46:37.471Z,12.70
2022-12-25T19:49:22.848Z,12.70
2022-12-25T19:52:08.760Z,12.70
2022-12-25T19:54:54.209Z,12.70
2022-12-25T19:57:40.506Z,12.70
2022-12-25T20:00:27.296Z,12.80
2022-12-25T20:03:12.821Z,12.60
2022-12-25T20:05:58.881Z,12.60
2022-12-25T20:08:46.176Z,12.60
2022-12-25T20:11:32.528Z,12.60
2022-12-25T20:14:19.467Z,12.60
2022-12-25T20:17:07.318Z,12.70
2022-12-25T20:19:56.374Z,12.70
2022-12-25T20:22:41.804Z,12.60
2022-12-25T20:25:28.035Z,12.50
2022-12-25T20:28:13.914Z,12.50
2022-12-25T20:30:59.643Z,12.70
2022-12-25T20:33:45.728Z,12.50
2022-12-25T20:36:36.854Z,12.40
2022-12-25T20:39:23.659Z,12.50
2022-12-25T20:42:10.170Z,12.40
2022-12-25T20:44:56.034Z,12.40
2022-12-25T20:47:41.496Z,12.50
2022-12-25T20:50:27.255Z,12.50
2022-12-25T20:53:12.768Z,12.40
2022-12-25T20:55:58.485Z,12.50
2022-12-25T20:58:44.442Z,12.50
2022-12-25T21:01:30.975Z,12.70
2022-12-25T21:04:16.854Z,12.60
2022-12-25T21:07:03.076Z,12.50
2022-12-25T21:09:48.635Z,12.50
2022-12-25T21:12:34.512Z,12.50
2022-12-25T21:15:20.081Z,12.50
2022-12-25T21:18:05.873Z,12.50
2022-12-25T21:20:54.254Z,12.50
2022-12-25T21:23:40.372Z,12.60
2022-12-25T21:26:28.949Z,12.60
2022-12-25T21:29:14.810Z,12.70
2022-12-25T21:32:18.861Z,12.70
2022-12-25T21:35:04.558Z,12.60
2022-12-25T21:37:49.832Z,12.50
2022-12-25T21:40:37.574Z,12.60
2022-12-25T21:43:22.939Z,12.60
2022-12-25T21:46:12.656Z,12.70
2022-12-25T21:48:59.333Z,12.60
2022-12-25T21:52:03.467Z,12.50
2022-12-25T21:54:52.653Z,12.50
2022-12-25T21:57:38.558Z,12.50
2022-12-25T22:00:24.447Z,12.50
2022-12-25T22:03:10.071Z,12.60
2022-12-25T22:06:21.184Z,12.60
2022-12-25T22:09:10.857Z,12.70
2022-12-25T22:12:15.387Z,12.70
2022-12-25T22:15:06.508Z,12.70
2022-12-25T22:18:10.962Z,12.60
2022-12-25T22:20:56.927Z,12.60
2022-12-25T22:23:42.610Z,12.60
2022-12-25T22:26:28.411Z,12.60
2022-12-25T22:29:13.849Z,12.50
2022-12-25T22:31:59.663Z,12.60
2022-12-25T22:34:45.409Z,12.50
2022-12-25T22:37:30.874Z,12.60
2022-12-25T22:40:18.869Z,12.70
2022-12-25T22:43:04.342Z,12.70
2022-12-25T22:45:50.061Z,12.70
2022-12-25T22:48:35.793Z,12.70
2022-12-25T22:51:21.322Z,12.60
2022-12-25T22:54:07.014Z,12.80
2022-12-25T22:56:53.443Z,12.70
2022-12-25T22:59:40.265Z,12.60
2022-12-25T23:02:26.654Z,12.60
2022-12-25T23:05:12.172Z,12.70
2022-12-25T23:07:57.752Z,12.60
2022-12-25T23:10:43.259Z,12.70
2022-12-25T23:13:47.228Z,12.80
2022-12-25T23:16:33.041Z,12.80
2022-12-25T23:19:36.989Z,12.80
2022-12-25T23:22:41.041Z,12.90
2022-12-25T23:25:47.668Z,12.80
2022-12-25T23:28:51.481Z,12.80
2022-12-25T23:31:39.779Z,12.90
2022-12-25T23:34:25.492Z,12.80
2022-12-25T23:37:11.986Z,12.70
2022-12-25T23:39:57.487Z,12.70
2022-12-25T23:42:43.068Z,12.60
2022-12-25T23:45:28.603Z,12.80
2022-12-25T23:48:14.236Z,12.70
2022-12-25T23:51:04.788Z,12.60
2022-12-25T23:53:50.760Z,12.80
2022-12-25T23:56:37.160Z,12.70
2022-12-25T23:59:23.469Z,12.70
